Bischofshofen, Austria

12:34 CEST le 25 septembre 2016 (GMT +0200)
Reitsam | | Change Station

Alt. 1748 ft 47.45 °N, 13.21 °E | Updated 6 minutes ago

Scattered Clouds
Nuages épars
62.1 ° F
Paraît 62.1 ° F
N
0.6
Vent Variable Vent de SSE
Gusts 1.9 mph

Aujourd'hui
Haut(e) -- | Bas -- ° F
--% Risque de précip.
Hier
Haut(e) -- | Bas -- ° F
Precip. -- pouce
Pression 30.15 pouce
Visibilité 6.2 Miles terrestres
Nuages Peu 6000 ft
Nuages épars 30000 ft
Point de rosée 52 ° F
Humidité 69%
Précipitations 0.00 pouce
Profondeur de la couche neigeuse Non disponible.
6:58 AM 6:58 PM
Lune descendante, 29% visible
METAR LOWS 251020Z 36003KT 9999 FEW060 SCT300 18/10 Q1021 NOSIG
Pression 30.15 pouce
Visibilité 6.2 Miles terrestres
Nuages Peu 6000 ft
Nuages épars 30000 ft
Point de rosée 52 ° F
Humidité 69%
Précipitations 0.00 pouce
Profondeur de la couche neigeuse Non disponible.
6:58 AM 6:58 PM
Lune descendante, 29% visible
METAR LOWS 251020Z 36003KT 9999 FEW060 SCT300 18/10 Q1021 NOSIG

10-Day Weather Forecast

×

Almanac

Astronomie

Sep. 25, 2016 Lever Coucher
Temps réel
Crépuscule civil
Crépuscule nautique
Crépuscule astronomique
Lune
Durée de lumière visible
Longueur du jour
Tomorrow will be .
, % of the Moon is Illuminated

Extrêmes aujourd'hui

Country Highs Country Lows

Community

WunderPhotos

Upload Photos

1,941,566 Photos téléchargées !

WunderBlog® & News

Nearby

Qualité de l'air

  Qualité de l'air Indice de la qualité de l'air Polluant
Not available.

Épaisseur de neige

Station Depth Altitude

Activité sismique

Ville Distance Mag. Time & Date
Minimum magnitude displayed is 2.5.

Températures des eaux côtières

Lieu Température

Stations

Stations météo à proximité

Emplacement de la station Température Refroidissement éolien Point de rosée Humidité Vent Precip. Alt. Mise à jour Type